sensor_id;sensor_type;location;lat;lon;timestamp;pressure;altitude;pressure_sealevel;temperature;humidity
61537;BME280;48695;53.480;-6.300;2022-11-03T00:02:08;99358.66;;;9.71;76.27
61537;BME280;48695;53.480;-6.300;2022-11-03T00:04:33;99375.50;;;9.84;76.10
61537;BME280;48695;53.480;-6.300;2022-11-03T00:06:59;99367.03;;;9.79;76.37
61537;BME280;48695;53.480;-6.300;2022-11-03T00:09:24;99377.44;;;9.79;76.10
61537;BME280;48695;53.480;-6.300;2022-11-03T00:11:51;99380.94;;;9.78;75.97
61537;BME280;48695;53.480;-6.300;2022-11-03T00:14:17;99368.81;;;9.77;76.13
61537;BME280;48695;53.480;-6.300;2022-11-03T00:16:42;99367.38;;;9.70;76.43
61537;BME280;48695;53.480;-6.300;2022-11-03T00:19:09;99381.94;;;9.75;76.24
61537;BME280;48695;53.480;-6.300;2022-11-03T00:21:36;99380.28;;;9.73;76.40
61537;BME280;48695;53.480;-6.300;2022-11-03T00:24:01;99383.03;;;9.70;76.38
61537;BME280;48695;53.480;-6.300;2022-11-03T00:26:29;99386.47;;;9.70;76.40
61537;BME280;48695;53.480;-6.300;2022-11-03T00:28:59;99382.13;;;9.71;76.19
61537;BME280;48695;53.480;-6.300;2022-11-03T00:31:27;99370.91;;;9.69;76.52
61537;BME280;48695;53.480;-6.300;2022-11-03T00:33:53;99368.34;;;9.67;76.71
61537;BME280;48695;53.480;-6.300;2022-11-03T00:36:27;99349.56;;;9.59;76.33
61537;BME280;48695;53.480;-6.300;2022-11-03T00:38:53;99352.00;;;9.64;76.08
61537;BME280;48695;53.480;-6.300;2022-11-03T00:41:19;99352.00;;;9.64;76.32
61537;BME280;48695;53.480;-6.300;2022-11-03T00:43:46;99357.25;;;9.62;76.51
61537;BME280;48695;53.480;-6.300;2022-11-03T00:46:12;99348.75;;;9.58;76.12
61537;BME280;48695;53.480;-6.300;2022-11-03T00:48:37;99320.03;;;9.38;76.10
61537;BME280;48695;53.480;-6.300;2022-11-03T00:51:17;99357.31;;;9.60;75.79
61537;BME280;48695;53.480;-6.300;2022-11-03T00:53:51;99350.44;;;9.59;75.90
61537;BME280;48695;53.480;-6.300;2022-11-03T00:56:31;99349.63;;;9.57;75.64
61537;BME280;48695;53.480;-6.300;2022-11-03T00:58:58;99341.94;;;9.54;76.29
61537;BME280;48695;53.480;-6.300;2022-11-03T01:01:29;99336.72;;;9.54;75.68
61537;BME280;48695;53.480;-6.300;2022-11-03T01:03:56;99343.75;;;9.52;76.04
61537;BME280;48695;53.480;-6.300;2022-11-03T01:06:43;99330.06;;;9.47;76.15
61537;BME280;48695;53.480;-6.300;2022-11-03T01:09:36;99326.56;;;9.48;76.11
61537;BME280;48695;53.480;-6.300;2022-11-03T01:17:00;99318.97;;;9.42;75.44
61537;BME280;48695;53.480;-6.300;2022-11-03T01:19:25;99289.97;;;9.29;75.47
61537;BME280;48695;53.480;-6.300;2022-11-03T01:21:53;99289.81;;;9.32;75.52
61537;BME280;48695;53.480;-6.300;2022-11-03T01:24:19;99300.13;;;9.35;75.78
61537;BME280;48695;53.480;-6.300;2022-11-03T01:26:45;99296.75;;;9.33;75.78
61537;BME280;48695;53.480;-6.300;2022-11-03T01:29:10;99302.91;;;9.31;75.99
61537;BME280;48695;53.480;-6.300;2022-11-03T01:31:36;99295.19;;;9.29;75.74
61537;BME280;48695;53.480;-6.300;2022-11-03T01:34:01;99299.53;;;9.29;75.76
61537;BME280;48695;53.480;-6.300;2022-11-03T01:36:26;99298.06;;;9.22;75.52
61537;BME280;48695;53.480;-6.300;2022-11-03T01:38:53;99294.44;;;9.26;76.05
61537;BME280;48695;53.480;-6.300;2022-11-03T01:41:20;99296.13;;;9.27;75.73
61537;BME280;48695;53.480;-6.300;2022-11-03T01:43:50;99296.38;;;9.21;75.77
61537;BME280;48695;53.480;-6.300;2022-11-03T01:46:28;99282.88;;;9.11;75.35
61537;BME280;48695;53.480;-6.300;2022-11-03T01:49:02;99291.19;;;9.21;75.71
61537;BME280;48695;53.480;-6.300;2022-11-03T01:51:31;99266.59;;;9.06;75.55
61537;BME280;48695;53.480;-6.300;2022-11-03T01:53:59;99274.22;;;9.10;75.68
61537;BME280;48695;53.480;-6.300;2022-11-03T01:56:29;99299.16;;;9.16;75.74
61537;BME280;48695;53.480;-6.300;2022-11-03T01:58:57;99289.72;;;9.14;75.71
61537;BME280;48695;53.480;-6.300;2022-11-03T02:01:22;99289.84;;;9.10;75.90
61537;BME280;48695;53.480;-6.300;2022-11-03T02:03:54;99287.16;;;9.12;75.91
61537;BME280;48695;53.480;-6.300;2022-11-03T02:06:22;99279.78;;;9.01;75.71
61537;BME280;48695;53.480;-6.300;2022-11-03T02:08:53;99283.06;;;9.06;75.89
61537;BME280;48695;53.480;-6.300;2022-11-03T02:11:20;99286.56;;;9.05;76.45
61537;BME280;48695;53.480;-6.300;2022-11-03T02:14:10;99286.56;;;9.05;76.16
61537;BME280;48695;53.480;-6.300;2022-11-03T02:16:36;99284.97;;;9.01;76.20
61537;BME280;48695;53.480;-6.300;2022-11-03T02:19:03;99277.16;;;9.01;76.07
61537;BME280;48695;53.480;-6.300;2022-11-03T02:27:30;99257.09;;;8.83;76.12
61537;BME280;48695;53.480;-6.300;2022-11-03T02:29:56;99267.91;;;8.94;76.04
61537;BME280;48695;53.480;-6.300;2022-11-03T02:32:24;99268.84;;;8.93;76.24
61537;BME280;48695;53.480;-6.300;2022-11-03T02:35:12;99268.03;;;8.91;75.75
61537;BME280;48695;53.480;-6.300;2022-11-03T02:37:46;99254.47;;;8.83;75.91
61537;BME280;48695;53.480;-6.300;2022-11-03T02:40:27;99255.41;;;8.82;75.73
61537;BME280;48695;53.480;-6.300;2022-11-03T02:42:55;99251.97;;;8.80;75.70
61537;BME280;48695;53.480;-6.300;2022-11-03T02:45:22;99259.53;;;8.86;75.65
61537;BME280;48695;53.480;-6.300;2022-11-03T02:47:50;99258.00;;;8.82;75.57
61537;BME280;48695;53.480;-6.300;2022-11-03T02:50:17;99246.25;;;8.72;75.64
61537;BME280;48695;53.480;-6.300;2022-11-03T02:52:47;99243.50;;;8.75;75.59
61537;BME280;48695;53.480;-6.300;2022-11-03T03:01:11;99262.53;;;8.77;76.56
61537;BME280;48695;53.480;-6.300;2022-11-03T03:03:53;99260.03;;;8.74;76.32
61537;BME280;48695;53.480;-6.300;2022-11-03T03:06:25;99254.81;;;8.74;76.26
61537;BME280;48695;53.480;-6.300;2022-11-03T03:08:59;99261.84;;;8.72;77.05
61537;BME280;48695;53.480;-6.300;2022-11-03T03:11:25;99251.56;;;8.69;76.86
61537;BME280;48695;53.480;-6.300;2022-11-03T03:14:10;99254.22;;;8.67;76.07
61537;BME280;48695;53.480;-6.300;2022-11-03T03:16:42;99252.56;;;8.65;76.72
61537;BME280;48695;53.480;-6.300;2022-11-03T03:22:13;99247.44;;;8.63;75.66
61537;BME280;48695;53.480;-6.300;2022-11-03T03:24:51;99238.09;;;8.57;75.78
61537;BME280;48695;53.480;-6.300;2022-11-03T03:27:19;99236.28;;;8.60;75.73
61537;BME280;48695;53.480;-6.300;2022-11-03T03:29:51;99229.31;;;8.60;75.59
61537;BME280;48695;53.480;-6.300;2022-11-03T03:32:21;99219.81;;;8.59;75.60
61537;BME280;48695;53.480;-6.300;2022-11-03T03:34:49;99220.66;;;8.60;75.86
61537;BME280;48695;53.480;-6.300;2022-11-03T03:37:15;99215.38;;;8.63;75.54
61537;BME280;48695;53.480;-6.300;2022-11-03T03:39:45;99215.41;;;8.61;75.63
61537;BME280;48695;53.480;-6.300;2022-11-03T03:42:13;99206.75;;;8.61;75.46
61537;BME280;48695;53.480;-6.300;2022-11-03T03:44:40;99200.84;;;8.57;75.71
61537;BME280;48695;53.480;-6.300;2022-11-03T03:47:09;99203.22;;;8.62;75.48
61537;BME280;48695;53.480;-6.300;2022-11-03T03:49:37;99203.38;;;8.58;75.39
61537;BME280;48695;53.480;-6.300;2022-11-03T03:52:02;99196.47;;;8.57;75.69
61537;BME280;48695;53.480;-6.300;2022-11-03T03:54:28;99199.09;;;8.57;75.26
61537;BME280;48695;53.480;-6.300;2022-11-03T03:56:59;99199.97;;;8.56;75.21
61537;BME280;48695;53.480;-6.300;2022-11-03T03:59:26;99200.88;;;8.55;75.85
61537;BME280;48695;53.480;-6.300;2022-11-03T04:01:51;99194.81;;;8.55;75.60
61537;BME280;48695;53.480;-6.300;2022-11-03T04:04:16;99196.59;;;8.54;75.45
61537;BME280;48695;53.480;-6.300;2022-11-03T04:06:42;99188.78;;;8.54;75.18
61537;BME280;48695;53.480;-6.300;2022-11-03T04:09:08;99189.69;;;8.53;75.50
61537;BME280;48695;53.480;-6.300;2022-11-03T04:11:33;99192.28;;;8.53;75.58
61537;BME280;48695;53.480;-6.300;2022-11-03T04:14:18;99194.91;;;8.53;75.72
61537;BME280;48695;53.480;-6.300;2022-11-03T04:17:02;99171.06;;;8.42;75.04
61537;BME280;48695;53.480;-6.300;2022-11-03T04:19:46;99190.59;;;8.52;75.88
61537;BME280;48695;53.480;-6.300;2022-11-03T04:22:32;99188.22;;;8.46;75.64
61537;BME280;48695;53.480;-6.300;2022-11-03T04:24:57;99199.25;;;8.53;75.04
61537;BME280;48695;53.480;-6.300;2022-11-03T04:27:29;99195.84;;;8.51;75.03
61537;BME280;48695;53.480;-6.300;2022-11-03T04:29:59;99192.53;;;8.47;75.86
61537;BME280;48695;53.480;-6.300;2022-11-03T04:32:27;99189.97;;;8.46;75.78
61537;BME280;48695;53.480;-6.300;2022-11-03T04:34:53;99179.94;;;8.35;75.36
61537;BME280;48695;53.480;-6.300;2022-11-03T04:37:18;99192.81;;;8.40;75.93
61537;BME280;48695;53.480;-6.300;2022-11-03T04:39:44;99190.28;;;8.38;76.49
61537;BME280;48695;53.480;-6.300;2022-11-03T04:42:20;99202.38;;;8.39;76.66
61537;BME280;48695;53.480;-6.300;2022-11-03T04:44:47;99197.38;;;8.33;76.78
61537;BME280;48695;53.480;-6.300;2022-11-03T04:47:15;99201.66;;;8.34;77.23
61537;BME280;48695;53.480;-6.300;2022-11-03T04:49:41;99204.25;;;8.34;75.99
61537;BME280;48695;53.480;-6.300;2022-11-03T04:52:16;99202.69;;;8.30;76.68
61537;BME280;48695;53.480;-6.300;2022-11-03T04:54:42;99199.28;;;8.28;77.05
61537;BME280;48695;53.480;-6.300;2022-11-03T04:57:13;99201.97;;;8.26;76.81
61537;BME280;48695;53.480;-6.300;2022-11-03T04:59:40;99196.03;;;8.23;76.61
61537;BME280;48695;53.480;-6.300;2022-11-03T05:02:14;99202.81;;;8.27;75.90
61537;BME280;48695;53.480;-6.300;2022-11-03T05:04:41;99207.28;;;8.23;76.66
61537;BME280;48695;53.480;-6.300;2022-11-03T05:07:30;99215.84;;;8.25;76.18
61537;BME280;48695;53.480;-6.300;2022-11-03T05:09:57;99199.72;;;8.16;76.75
61537;BME280;48695;53.480;-6.300;2022-11-03T05:12:22;99203.25;;;8.15;76.89
61537;BME280;48695;53.480;-6.300;2022-11-03T05:14:48;99211.78;;;8.18;77.00
61537;BME280;48695;53.480;-6.300;2022-11-03T05:17:25;99209.13;;;8.20;76.93
61537;BME280;48695;53.480;-6.300;2022-11-03T05:19:56;99197.94;;;8.18;76.66
61537;BME280;48695;53.480;-6.300;2022-11-03T05:22:23;99190.38;;;8.12;76.68
61537;BME280;48695;53.480;-6.300;2022-11-03T05:24:55;99188.84;;;8.06;76.84
61537;BME280;48695;53.480;-6.300;2022-11-03T05:27:21;99172.63;;;7.99;76.67
61537;BME280;48695;53.480;-6.300;2022-11-03T05:29:48;99185.19;;;8.12;76.40
61537;BME280;48695;53.480;-6.300;2022-11-03T05:32:18;99188.66;;;8.11;76.37
61537;BME280;48695;53.480;-6.300;2022-11-03T05:34:46;99184.50;;;8.06;76.13
61537;BME280;48695;53.480;-6.300;2022-11-03T05:39:53;99203.25;;;8.15;77.03
61537;BME280;48695;53.480;-6.300;2022-11-03T05:44:48;99201.56;;;8.14;76.29
61537;BME280;48695;53.480;-6.300;2022-11-03T05:49:54;99191.16;;;8.14;75.76
61537;BME280;48695;53.480;-6.300;2022-11-03T05:52:23;99194.53;;;8.16;75.77
61537;BME280;48695;53.480;-6.300;2022-11-03T05:54:50;99197.19;;;8.14;75.58
61537;BME280;48695;53.480;-6.300;2022-11-03T05:57:17;99198.88;;;8.15;75.62
61537;BME280;48695;53.480;-6.300;2022-11-03T05:59:45;99192.00;;;8.14;76.00
61537;BME280;48695;53.480;-6.300;2022-11-03T06:04:48;99185.09;;;8.13;76.43
61537;BME280;48695;53.480;-6.300;2022-11-03T06:07:26;99187.72;;;8.13;76.81
61537;BME280;48695;53.480;-6.300;2022-11-03T06:09:53;99186.06;;;8.11;77.10
61537;BME280;48695;53.480;-6.300;2022-11-03T06:12:21;99180.06;;;8.09;76.96
61537;BME280;48695;53.480;-6.300;2022-11-03T06:14:47;99170.69;;;8.04;76.94
61537;BME280;48695;53.480;-6.300;2022-11-03T06:17:24;99159.56;;;8.01;76.99
61537;BME280;48695;53.480;-6.300;2022-11-03T06:19:53;99172.50;;;8.02;75.93
61537;BME280;48695;53.480;-6.300;2022-11-03T06:22:37;99163.13;;;7.98;76.87
61537;BME280;48695;53.480;-6.300;2022-11-03T06:27:46;99146.94;;;7.90;76.93
61537;BME280;48695;53.480;-6.300;2022-11-03T06:30:27;99144.56;;;7.86;77.14
61537;BME280;48695;53.480;-6.300;2022-11-03T06:32:57;99133.50;;;7.79;77.12
61537;BME280;48695;53.480;-6.300;2022-11-03T06:35:24;99135.38;;;7.75;77.06
61537;BME280;48695;53.480;-6.300;2022-11-03T06:37:49;99142.22;;;7.78;77.32
61537;BME280;48695;53.480;-6.300;2022-11-03T06:42:41;99143.97;;;7.77;77.30
61537;BME280;48695;53.480;-6.300;2022-11-03T06:45:22;99131.91;;;7.75;76.70
61537;BME280;48695;53.480;-6.300;2022-11-03T06:47:48;99148.31;;;7.77;77.13
61537;BME280;48695;53.480;-6.300;2022-11-03T06:50:27;99147.41;;;7.78;77.10
61537;BME280;48695;53.480;-6.300;2022-11-03T06:52:55;99145.72;;;7.77;77.60
61537;BME280;48695;53.480;-6.300;2022-11-03T06:57:47;99150.00;;;7.78;77.30
61537;BME280;48695;53.480;-6.300;2022-11-03T07:00:24;99145.59;;;7.80;76.72
61537;BME280;48695;53.480;-6.300;2022-11-03T07:05:35;99150.00;;;7.78;76.63
61537;BME280;48695;53.480;-6.300;2022-11-03T07:08:10;99145.59;;;7.80;77.00
61537;BME280;48695;53.480;-6.300;2022-11-03T07:10:37;99141.44;;;7.76;77.21
61537;BME280;48695;53.480;-6.300;2022-11-03T07:13:12;99138.59;;;7.82;76.80
61537;BME280;48695;53.480;-6.300;2022-11-03T07:15:39;99145.59;;;7.80;76.96
61537;BME280;48695;53.480;-6.300;2022-11-03T07:18:26;99141.94;;;7.86;76.65
61537;BME280;48695;53.480;-6.300;2022-11-03T07:20:53;99129.06;;;7.83;76.86
61537;BME280;48695;53.480;-6.300;2022-11-03T07:23:22;99121.31;;;7.81;76.54
61537;BME280;48695;53.480;-6.300;2022-11-03T07:25:53;99126.22;;;7.89;76.36
61537;BME280;48695;53.480;-6.300;2022-11-03T07:28:23;99125.31;;;7.90;76.23
61537;BME280;48695;53.480;-6.300;2022-11-03T07:30:50;99113.22;;;7.89;76.33
61537;BME280;48695;53.480;-6.300;2022-11-03T07:33:21;99117.47;;;7.91;76.14
61537;BME280;48695;53.480;-6.300;2022-11-03T07:35:48;99117.34;;;7.94;76.54
61537;BME280;48695;53.480;-6.300;2022-11-03T07:38:20;99114.66;;;7.97;76.16
61537;BME280;48695;53.480;-6.300;2022-11-03T07:40:45;99111.25;;;7.95;76.04
61537;BME280;48695;53.480;-6.300;2022-11-03T07:43:22;99114.59;;;7.99;75.76
61537;BME280;48695;53.480;-6.300;2022-11-03T07:45:51;99112.91;;;7.98;75.86
61537;BME280;48695;53.480;-6.300;2022-11-03T07:50:48;99088.22;;;7.86;75.77
61537;BME280;48695;53.480;-6.300;2022-11-03T07:53:24;99112.72;;;8.02;76.15
61537;BME280;48695;53.480;-6.300;2022-11-03T07:55:54;99099.97;;;7.96;75.76
61537;BME280;48695;53.480;-6.300;2022-11-03T07:58:28;99113.63;;;8.01;75.65
61537;BME280;48695;53.480;-6.300;2022-11-03T08:00:56;99112.81;;;7.99;76.37
61537;BME280;48695;53.480;-6.300;2022-11-03T08:03:43;99107.53;;;8.02;76.06
61537;BME280;48695;53.480;-6.300;2022-11-03T08:06:10;99118.00;;;8.01;75.71
61537;BME280;48695;53.480;-6.300;2022-11-03T08:08:35;99108.44;;;8.01;76.38
61537;BME280;48695;53.480;-6.300;2022-11-03T08:11:01;99111.81;;;8.03;76.56
61537;BME280;48695;53.480;-6.300;2022-11-03T08:13:26;99108.06;;;8.11;76.22
61537;BME280;48695;53.480;-6.300;2022-11-03T08:15:52;99101.06;;;8.13;76.53
61537;BME280;48695;53.480;-6.300;2022-11-03T08:18:17;99107.44;;;8.27;76.76
61537;BME280;48695;53.480;-6.300;2022-11-03T08:20:43;99105.34;;;8.37;75.96
61537;BME280;48695;53.480;-6.300;2022-11-03T08:23:08;99105.09;;;8.43;76.05
61537;BME280;48695;53.480;-6.300;2022-11-03T08:25:35;99106.44;;;8.53;75.80
61537;BME280;48695;53.480;-6.300;2022-11-03T08:28:01;99103.59;;;8.60;75.90
61537;BME280;48695;53.480;-6.300;2022-11-03T08:30:28;99109.44;;;8.65;75.67
61537;BME280;48695;53.480;-6.300;2022-11-03T08:32:53;99104.06;;;8.69;75.38
61537;BME280;48695;53.480;-6.300;2022-11-03T08:35:19;99098.78;;;8.71;75.07
61537;BME280;48695;53.480;-6.300;2022-11-03T08:37:44;99102.00;;;8.77;75.23
61537;BME280;48695;53.480;-6.300;2022-11-03T08:40:10;99099.34;;;8.79;75.66
61537;BME280;48695;53.480;-6.300;2022-11-03T08:42:35;99091.34;;;8.83;75.10
61537;BME280;48695;53.480;-6.300;2022-11-03T08:45:01;99093.56;;;8.93;75.53
61537;BME280;48695;53.480;-6.300;2022-11-03T08:47:26;99096.69;;;9.01;75.54
61537;BME280;48695;53.480;-6.300;2022-11-03T08:49:51;99101.25;;;9.16;75.84
61537;BME280;48695;53.480;-6.300;2022-11-03T08:52:17;99094.69;;;9.28;75.19
61537;BME280;48695;53.480;-6.300;2022-11-03T08:54:42;99094.22;;;9.39;74.77
61537;BME280;48695;53.480;-6.300;2022-11-03T08:57:07;99096.16;;;9.54;74.92
61537;BME280;48695;53.480;-6.300;2022-11-03T08:59:33;99094.75;;;9.66;74.88
61537;BME280;48695;53.480;-6.300;2022-11-03T09:01:58;99100.84;;;9.85;74.88
61537;BME280;48695;53.480;-6.300;2022-11-03T09:04:23;99085.63;;;9.95;74.51
61537;BME280;48695;53.480;-6.300;2022-11-03T09:06:49;99095.50;;;10.26;74.99
61537;BME280;48695;53.480;-6.300;2022-11-03T09:09:14;99100.47;;;10.49;73.89
61537;BME280;48695;53.480;-6.300;2022-11-03T09:11:40;99096.81;;;10.71;73.32
61537;BME280;48695;53.480;-6.300;2022-11-03T09:14:06;99064.97;;;10.81;72.54
61537;BME280;48695;53.480;-6.300;2022-11-03T09:16:31;99068.13;;;11.05;72.29
61537;BME280;48695;53.480;-6.300;2022-11-03T09:18:56;99088.94;;;11.40;71.88
61537;BME280;48695;53.480;-6.300;2022-11-03T09:21:22;99069.25;;;11.50;71.30
61537;BME280;48695;53.480;-6.300;2022-11-03T09:23:47;99091.31;;;11.95;71.37
61537;BME280;48695;53.480;-6.300;2022-11-03T09:26:13;99081.38;;;12.17;70.84
61537;BME280;48695;53.480;-6.300;2022-11-03T09:28:38;99086.25;;;12.39;70.24
61537;BME280;48695;53.480;-6.300;2022-11-03T09:31:04;99092.72;;;12.64;70.20
61537;BME280;48695;53.480;-6.300;2022-11-03T09:33:29;99082.69;;;12.86;69.34
61537;BME280;48695;53.480;-6.300;2022-11-03T09:35:54;99079.84;;;13.05;69.14
61537;BME280;48695;53.480;-6.300;2022-11-03T09:38:20;99077.78;;;13.26;68.11
61537;BME280;48695;53.480;-6.300;2022-11-03T09:40:45;99067.97;;;13.44;67.78
61537;BME280;48695;53.480;-6.300;2022-11-03T09:43:11;99073.41;;;13.69;67.92
61537;BME280;48695;53.480;-6.300;2022-11-03T09:45:37;99070.41;;;13.90;66.59
61537;BME280;48695;53.480;-6.300;2022-11-03T09:48:03;99063.97;;;14.08;66.61
61537;BME280;48695;53.480;-6.300;2022-11-03T09:50:28;99067.88;;;14.30;66.35
61537;BME280;48695;53.480;-6.300;2022-11-03T09:52:55;99070.09;;;14.50;66.06
61537;BME280;48695;53.480;-6.300;2022-11-03T09:55:25;99053.13;;;14.68;66.17
61537;BME280;48695;53.480;-6.300;2022-11-03T09:57:53;99056.56;;;14.96;65.47
61537;BME280;48695;53.480;-6.300;2022-11-03T10:00:22;99064.13;;;15.13;64.74
61537;BME280;48695;53.480;-6.300;2022-11-03T10:02:48;99064.56;;;15.32;63.99
61537;BME280;48695;53.480;-6.300;2022-11-03T10:05:25;99061.00;;;15.59;65.68
61537;BME280;48695;53.480;-6.300;2022-11-03T10:07:56;99071.00;;;15.79;64.20
61537;BME280;48695;53.480;-6.300;2022-11-03T10:10:23;99076.13;;;15.94;63.67
61537;BME280;48695;53.480;-6.300;2022-11-03T10:12:49;99069.56;;;16.12;62.04
61537;BME280;48695;53.480;-6.300;2022-11-03T10:15:18;99062.13;;;16.30;62.25
61537;BME280;48695;53.480;-6.300;2022-11-03T10:17:45;99070.59;;;16.46;62.12
61537;BME280;48695;53.480;-6.300;2022-11-03T10:20:13;99057.75;;;16.66;61.60
61537;BME280;48695;53.480;-6.300;2022-11-03T10:22:40;99064.44;;;16.82;61.75
61537;BME280;48695;53.480;-6.300;2022-11-03T10:25:32;99034.28;;;16.98;63.81
61537;BME280;48695;53.480;-6.300;2022-11-03T10:28:20;99054.41;;;17.34;63.47
61537;BME280;48695;53.480;-6.300;2022-11-03T10:33:28;99058.63;;;17.59;61.08
61537;BME280;48695;53.480;-6.300;2022-11-03T10:35:56;99056.59;;;17.74;60.45
61537;BME280;48695;53.480;-6.300;2022-11-03T10:38:31;99051.78;;;18.01;60.96
61537;BME280;48695;53.480;-6.300;2022-11-03T10:41:15;99049.69;;;18.27;62.93
61537;BME280;48695;53.480;-6.300;2022-11-03T10:44:04;99051.31;;;18.51;63.53
61537;BME280;48695;53.480;-6.300;2022-11-03T10:46:31;99055.25;;;18.56;56.86
61537;BME280;48695;53.480;-6.300;2022-11-03T10:49:02;99052.41;;;18.80;58.39
61537;BME280;48695;53.480;-6.300;2022-11-03T10:51:31;99055.91;;;18.81;57.01
61537;BME280;48695;53.480;-6.300;2022-11-03T10:53:57;99050.81;;;18.89;57.50
61537;BME280;48695;53.480;-6.300;2022-11-03T10:56:22;99030.47;;;18.89;56.07
61537;BME280;48695;53.480;-6.300;2022-11-03T10:58:48;99040.94;;;19.12;57.21
61537;BME280;48695;53.480;-6.300;2022-11-03T11:01:13;99037.13;;;19.26;56.13
61537;BME280;48695;53.480;-6.300;2022-11-03T11:03:41;99030.13;;;19.45;55.20
61537;BME280;48695;53.480;-6.300;2022-11-03T11:06:22;99036.50;;;19.64;60.67
61537;BME280;48695;53.480;-6.300;2022-11-03T11:08:51;99031.66;;;19.69;56.72
61537;BME280;48695;53.480;-6.300;2022-11-03T11:11:20;99034.19;;;19.80;56.58
61537;BME280;48695;53.480;-6.300;2022-11-03T11:16:52;99034.59;;;20.26;56.32
61537;BME280;48695;53.480;-6.300;2022-11-03T11:19:19;99029.47;;;20.34;57.04
61537;BME280;48695;53.480;-6.300;2022-11-03T11:24:12;99020.00;;;20.70;52.07
61537;BME280;48695;53.480;-6.300;2022-11-03T11:26:38;99017.34;;;20.80;53.52
61537;BME280;48695;53.480;-6.300;2022-11-03T11:31:33;98995.38;;;21.07;56.56
61537;BME280;48695;53.480;-6.300;2022-11-03T11:36:41;98995.38;;;21.54;52.35
61537;BME280;48695;53.480;-6.300;2022-11-03T11:52:30;98994.38;;;22.37;51.06
61537;BME280;48695;53.480;-6.300;2022-11-03T11:54:55;98995.38;;;22.36;50.44
61537;BME280;48695;53.480;-6.300;2022-11-03T11:57:21;98991.63;;;22.29;51.77
61537;BME280;48695;53.480;-6.300;2022-11-03T11:59:48;98998.63;;;22.30;53.21
61537;BME280;48695;53.480;-6.300;2022-11-03T12:02:22;99005.19;;;22.36;52.40
61537;BME280;48695;53.480;-6.300;2022-11-03T12:04:51;99006.59;;;22.30;52.31
61537;BME280;48695;53.480;-6.300;2022-11-03T12:07:33;98999.63;;;22.29;52.94
61537;BME280;48695;53.480;-6.300;2022-11-03T12:10:29;98993.53;;;22.19;53.87
61537;BME280;48695;53.480;-6.300;2022-11-03T12:12:57;98990.56;;;21.94;54.80
61537;BME280;48695;53.480;-6.300;2022-11-03T12:15:54;98991.16;;;21.88;55.83
61537;BME280;48695;53.480;-6.300;2022-11-03T12:18:41;98986.75;;;21.79;55.49
61537;BME280;48695;53.480;-6.300;2022-11-03T12:21:13;98991.84;;;21.63;54.30
61537;BME280;48695;53.480;-6.300;2022-11-03T12:23:58;98986.34;;;21.46;54.31
61537;BME280;48695;53.480;-6.300;2022-11-03T12:28:51;98961.06;;;20.95;52.86
61537;BME280;48695;53.480;-6.300;2022-11-03T12:31:17;98981.88;;;20.90;56.71
61537;BME280;48695;53.480;-6.300;2022-11-03T12:33:42;98973.38;;;20.67;57.37
61537;BME280;48695;53.480;-6.300;2022-11-03T12:36:08;98977.31;;;20.54;56.44
61537;BME280;48695;53.480;-6.300;2022-11-03T12:38:34;98982.59;;;20.44;57.62
61537;BME280;48695;53.480;-6.300;2022-11-03T12:40:59;98963.03;;;20.26;57.47
61537;BME280;48695;53.480;-6.300;2022-11-03T12:43:44;98968.59;;;20.32;58.97
61537;BME280;48695;53.480;-6.300;2022-11-03T12:46:09;98964.16;;;20.33;58.50
61537;BME280;48695;53.480;-6.300;2022-11-03T12:48:36;98964.69;;;20.36;60.20
61537;BME280;48695;53.480;-6.300;2022-11-03T12:51:01;98968.59;;;20.42;57.78
61537;BME280;48695;53.480;-6.300;2022-11-03T12:53:26;98977.13;;;20.45;54.53
61537;BME280;48695;53.480;-6.300;2022-11-03T12:55:52;98971.13;;;20.43;56.73
61537;BME280;48695;53.480;-6.300;2022-11-03T12:58:17;98963.59;;;20.39;58.79
61537;BME280;48695;53.480;-6.300;2022-11-03T13:00:42;98964.03;;;20.34;58.17
61537;BME280;48695;53.480;-6.300;2022-11-03T13:03:08;98964.44;;;20.30;55.83
61537;BME280;48695;53.480;-6.300;2022-11-03T13:05:33;98965.00;;;20.24;59.36
61537;BME280;48695;53.480;-6.300;2022-11-03T13:07:59;98963.75;;;20.18;59.73
61537;BME280;48695;53.480;-6.300;2022-11-03T13:10:24;98957.19;;;20.12;58.25
61537;BME280;48695;53.480;-6.300;2022-11-03T13:12:50;98954.22;;;20.06;57.80
61537;BME280;48695;53.480;-6.300;2022-11-03T13:15:15;98952.38;;;19.96;58.43
61537;BME280;48695;53.480;-6.300;2022-11-03T13:17:41;98952.09;;;19.90;58.62
61537;BME280;48695;53.480;-6.300;2022-11-03T13:20:07;98951.81;;;19.83;58.37
61537;BME280;48695;53.480;-6.300;2022-11-03T13:22:33;98953.06;;;19.79;59.06
61537;BME280;48695;53.480;-6.300;2022-11-03T13:25:02;98950.69;;;19.76;58.79
61537;BME280;48695;53.480;-6.300;2022-11-03T13:27:27;98943.13;;;19.72;57.30
61537;BME280;48695;53.480;-6.300;2022-11-03T13:29:53;98947.06;;;19.67;59.67
61537;BME280;48695;53.480;-6.300;2022-11-03T13:32:20;98944.53;;;19.66;54.50
61537;BME280;48695;53.480;-6.300;2022-11-03T13:34:46;98949.13;;;19.64;58.05
61537;BME280;48695;53.480;-6.300;2022-11-03T13:37:11;98952.22;;;19.69;57.12
61537;BME280;48695;53.480;-6.300;2022-11-03T13:39:37;98933.25;;;19.64;56.19
61537;BME280;48695;53.480;-6.300;2022-11-03T13:42:02;98958.09;;;19.82;56.99
61537;BME280;48695;53.480;-6.300;2022-11-03T13:44:28;98948.78;;;19.88;56.84
61537;BME280;48695;53.480;-6.300;2022-11-03T13:46:53;98940.69;;;19.89;56.14
61537;BME280;48695;53.480;-6.300;2022-11-03T13:49:18;98941.25;;;19.93;56.82
61537;BME280;48695;53.480;-6.300;2022-11-03T13:51:45;98953.53;;;20.04;58.51
61537;BME280;48695;53.480;-6.300;2022-11-03T13:54:10;98945.44;;;20.05;58.58
61537;BME280;48695;53.480;-6.300;2022-11-03T13:56:36;98952.28;;;20.08;55.84
61537;BME280;48695;53.480;-6.300;2022-11-03T13:59:01;98945.44;;;20.05;55.57
61537;BME280;48695;53.480;-6.300;2022-11-03T14:01:27;98939.88;;;19.99;55.13
61537;BME280;48695;53.480;-6.300;2022-11-03T14:03:52;98935.63;;;19.86;57.39
61537;BME280;48695;53.480;-6.300;2022-11-03T14:06:17;98940.50;;;19.81;59.38
61537;BME280;48695;53.480;-6.300;2022-11-03T14:08:43;98927.25;;;19.62;59.22
61537;BME280;48695;53.480;-6.300;2022-11-03T14:11:08;98951.50;;;19.67;60.32
61537;BME280;48695;53.480;-6.300;2022-11-03T14:13:52;98949.63;;;19.58;58.64
61537;BME280;48695;53.480;-6.300;2022-11-03T14:16:18;98947.78;;;19.49;59.04
61537;BME280;48695;53.480;-6.300;2022-11-03T14:18:43;98927.97;;;19.33;58.28
61537;BME280;48695;53.480;-6.300;2022-11-03T14:21:08;98942.84;;;19.34;58.37